Time;durP1;ratioP1;P1;durP2;ratioP2;P2;SDS_P1;SDS_P2;PMS_P1;PMS_P2;Temp;Humidity;BMP_temperature;BMP_pressure;BME280_temperature;BME280_humidity;BME280_pressure;Samples;Min_cycle;Max_cycle;Signal;HPM_P1;HPM_P2
2023/06/16 00:02:18;;;;;;;3.65;1.25;;;;;;;25.12;40.52;100090.19;20959577;28;20460;-78
2023/06/16 00:12:26;;;;;;;3.83;1.40;;;;;;;25.18;39.94;100076.34;20975917;28;20121;-78
2023/06/16 00:22:51;;;;;;;5.40;1.40;;;;;;;25.23;41.00;100063.44;20963552;28;20071;-78
2023/06/16 00:33:15;;;;;;;8.43;1.60;;;;;;;25.19;41.96;100054.63;20992813;28;20078;-77
2023/06/16 00:43:40;;;;;;;4.15;1.73;;;;;;;25.20;41.59;100048.28;21001548;28;20050;-77
2023/06/16 00:54:04;;;;;;;7.32;1.73;;;;;;;25.45;38.62;100044.19;20978907;28;20056;-78
2023/06/16 01:04:12;;;;;;;2.70;1.33;;;;;;;25.71;38.64;100041.75;20991390;28;20056;-77
2023/06/16 01:14:44;;;;;;;4.63;1.70;;;;;;;25.72;41.41;100050.75;20982611;28;20610;-78
2023/06/16 01:25:14;;;;;;;3.55;1.80;;;;;;;25.61;45.75;100039.66;21013874;28;20044;-78
2023/06/16 01:35:36;;;;;;;4.50;1.90;;;;;;;25.51;50.53;100033.00;20964606;28;20450;-78
2023/06/16 01:46:00;;;;;;;2.10;1.48;;;;;;;25.47;53.74;100023.34;20962772;28;20055;-77
2023/06/16 01:56:23;;;;;;;4.72;1.73;;;;;;;25.49;57.14;99997.06;20995622;28;20098;-78
2023/06/16 02:06:30;;;;;;;4.32;1.85;;;;;;;25.53;57.76;100010.34;20983975;28;20552;-77
2023/06/16 02:16:52;;;;;;;4.72;1.98;;;;;;;25.52;57.81;100002.31;20984371;28;20056;-78
2023/06/16 02:27:17;;;;;;;4.82;1.83;;;;;;;25.57;56.42;99989.41;20973706;28;20060;-78
2023/06/16 02:37:27;;;;;;;5.13;1.73;;;;;;;25.60;57.30;99986.56;20988228;28;20048;-78
2023/06/16 02:47:42;;;;;;;6.88;1.98;;;;;;;25.59;60.68;99988.41;20981022;28;20044;-78
2023/06/16 02:57:45;;;;;;;4.90;1.88;;;;;;;25.49;67.82;100002.47;21006142;28;20132;-78
2023/06/16 03:08:10;;;;;;;4.38;1.88;;;;;;;25.33;70.91;99998.00;20965340;28;20071;-78
2023/06/16 03:18:23;;;;;;;4.82;1.67;;;;;;;25.26;75.30;100004.69;20983905;28;20390;-78
2023/06/16 03:28:29;;;;;;;6.55;2.30;;;;;;;25.14;81.88;100016.19;20995510;28;20040;-77
2023/06/16 03:38:51;;;;;;;6.00;2.10;;;;;;;25.10;89.36;100029.94;20956409;28;20033;-77
2023/06/16 03:49:15;;;;;;;3.08;1.60;;;;;;;25.16;86.61;100024.19;20987928;28;20620;-78
2023/06/16 03:59:40;;;;;;;6.65;1.88;;;;;;;25.45;80.20;100017.16;20963350;28;20155;-78
2023/06/16 04:09:44;;;;;;;7.00;1.50;;;;;;;25.93;70.65;100010.75;20975184;28;20435;-77
2023/06/16 04:19:47;;;;;;;4.53;1.77;;;;;;;26.26;69.55;100015.94;21014093;28;20048;-78
2023/06/16 04:29:52;;;;;;;9.57;2.30;;;;;;;26.51;77.10;99972.91;20982758;28;20487;-77
2023/06/16 04:40:15;;;;;;;14.63;3.10;;;;;;;26.45;100.00;99952.47;20944687;28;20114;-76
2023/06/16 04:50:36;;;;;;;15.35;4.55;;;;;;;26.33;100.00;99928.00;20974061;28;20185;-78
2023/06/16 05:00:59;;;;;;;10.85;3.75;;;;;;;26.42;100.00;99922.03;20952494;28;20431;-78
2023/06/16 05:11:24;;;;;;;11.50;3.42;;;;;;;26.66;100.00;99893.38;20955211;28;20656;-78
2023/06/16 05:21:47;;;;;;;11.23;4.07;;;;;;;26.93;100.00;99894.31;20957249;28;20057;-79
2023/06/16 05:32:12;;;;;;;16.15;4.13;;;;;;;27.13;100.00;99879.44;20987662;28;20472;-79
2023/06/16 05:42:22;;;;;;;13.88;4.00;;;;;;;27.44;100.00;99883.66;21001146;28;20079;-80
2023/06/16 05:52:47;;;;;;;12.98;3.80;;;;;;;27.81;100.00;99862.19;20959738;28;20051;-79
2023/06/16 06:03:10;;;;;;;13.80;4.40;;;;;;;28.09;100.00;99861.97;20973862;28;20052;-79
2023/06/16 06:13:36;;;;;;;30.40;6.20;;;;;;;28.48;100.00;99836.53;20967652;28;20098;-81
2023/06/16 06:23:59;;;;;;;13.88;5.00;;;;;;;28.74;100.00;99906.16;20977002;28;20141;-81
2023/06/16 06:34:23;;;;;;;17.85;4.32;;;;;;;29.51;100.00;99961.16;20996549;28;20594;-82
2023/06/16 06:44:45;;;;;;;11.65;3.53;;;;;;;30.51;95.54;99958.81;20988194;28;20036;-81
2023/06/16 06:55:02;;;;;;;16.13;3.85;;;;;;;30.52;95.82;99949.66;21012005;28;20048;-82
2023/06/16 07:05:24;;;;;;;14.70;3.47;;;;;;;31.01;97.22;99962.00;20986308;28;20049;-81
2023/06/16 07:15:49;;;;;;;11.93;4.10;;;;;;;30.87;96.38;99994.00;20975242;28;20188;-81
2023/06/16 07:26:11;;;;;;;12.75;4.10;;;;;;;30.89;98.76;100010.25;20995323;28;20061;-82
2023/06/16 07:36:38;;;;;;;17.60;3.72;;;;;;;31.39;97.16;100052.50;21002430;28;20122;-81
2023/06/16 07:47:00;;;;;;;13.13;4.17;;;;;;;31.49;94.15;100058.09;21008715;28;20097;-82
2023/06/16 07:57:17;;;;;;;14.30;3.80;;;;;;;30.92;99.80;100096.41;21018598;28;20292;-82
2023/06/16 08:07:39;;;;;;;14.00;4.00;;;;;;;31.19;98.84;100061.44;21008024;28;20068;-81
2023/06/16 08:18:04;;;;;;;12.70;4.13;;;;;;;31.06;100.00;100057.97;20980302;28;20056;-82
2023/06/16 08:28:07;;;;;;;17.08;5.03;;;;;;;30.78;100.00;100035.66;20978357;28;20393;-83
2023/06/16 08:38:32;;;;;;;16.13;5.07;;;;;;;30.87;100.00;100004.91;21002787;28;20044;-81
2023/06/16 08:48:54;;;;;;;21.40;4.95;;;;;;;31.25;100.00;99973.66;21001320;28;20052;-79
2023/06/16 08:59:20;;;;;;;12.82;4.03;;;;;;;31.77;99.96;99969.34;20987974;28;20052;-81
2023/06/16 09:09:42;;;;;;;18.73;4.73;;;;;;;32.37;91.79;99980.44;20975033;28;20052;-81
2023/06/16 09:20:14;;;;;;;15.82;4.55;;;;;;;33.09;83.49;100002.28;20972622;28;20059;-82
2023/06/16 09:30:37;;;;;;;16.10;4.00;;;;;;;33.65;76.18;100015.44;20979278;28;20560;-81
2023/06/16 09:41:10;;;;;;;18.92;4.28;;;;;;;33.67;77.04;100023.50;20982138;28;20057;-82
2023/06/16 09:51:32;;;;;;;15.52;4.15;;;;;;;34.24;67.75;100040.03;20998398;28;20094;-82
2023/06/16 10:01:58;;;;;;;18.25;3.90;;;;;;;34.92;57.78;100032.56;20973644;28;20110;-82
2023/06/16 10:12:23;;;;;;;11.65;3.47;;;;;;;35.11;59.47;100056.34;20974785;28;20057;-82
2023/06/16 10:22:47;;;;;;;14.75;3.30;;;;;;;35.06;57.98;100075.13;20987074;28;20048;-82
2023/06/16 10:33:18;;;;;;;14.18;3.95;;;;;;;34.72;52.01;100099.50;20975146;28;20512;-85
2023/06/16 10:43:42;;;;;;;12.35;3.50;;;;;;;34.77;47.46;100119.09;20934291;28;20036;-83
2023/06/16 10:54:07;;;;;;;10.87;2.50;;;;;;;35.26;47.89;100128.97;20982908;28;20101;-84
2023/06/16 11:04:34;;;;;;;12.27;2.90;;;;;;;35.76;45.58;100115.78;20978922;28;20059;-84
2023/06/16 11:14:55;;;;;;;14.65;2.95;;;;;;;36.04;43.97;100102.84;20967648;28;20041;-84
2023/06/16 11:25:19;;;;;;;16.38;3.58;;;;;;;35.62;43.99;100082.41;20964486;28;20131;-82
2023/06/16 11:35:41;;;;;;;15.00;3.88;;;;;;;35.08;45.33;100076.72;20968218;28;20040;-80
2023/06/16 11:46:06;;;;;;;15.43;3.20;;;;;;;34.89;45.93;100086.88;20984257;28;20044;-84
2023/06/16 11:56:14;;;;;;;14.30;2.88;;;;;;;34.46;45.80;100093.72;20979102;28;20044;-83
2023/06/16 12:06:20;;;;;;;15.10;3.53;;;;;;;34.54;45.95;100079.25;20988232;28;20060;-84
2023/06/16 12:16:43;;;;;;;15.00;2.90;;;;;;;34.68;45.20;100081.53;20976748;28;20052;-83
2023/06/16 12:27:07;;;;;;;17.42;3.08;;;;;;;34.41;45.07;100074.06;20981533;28;20059;-84
2023/06/16 12:37:30;;;;;;;13.93;3.10;;;;;;;34.49;46.42;100073.34;21025512;28;20041;-81
2023/06/16 12:47:36;;;;;;;14.60;3.13;;;;;;;34.49;48.33;100071.47;21005844;28;20041;-82
2023/06/16 12:57:53;;;;;;;13.30;3.45;;;;;;;35.29;47.08;100076.53;21017444;28;20056;-83
2023/06/16 13:08:17;;;;;;;13.48;3.25;;;;;;;34.64;48.39;100086.47;20997642;28;20052;-84
2023/06/16 13:18:39;;;;;;;15.45;3.45;;;;;;;34.20;49.80;100092.53;21001821;28;20401;-82
2023/06/16 13:29:05;;;;;;;15.68;3.67;;;;;;;33.68;53.43;100085.47;20997878;28;20056;-84
2023/06/16 13:39:27;;;;;;;14.30;3.53;;;;;;;33.44;56.44;100091.31;20998737;28;20071;-83
2023/06/16 13:49:53;;;;;;;18.00;3.47;;;;;;;33.30;58.31;100098.03;20997076;28;20082;-83
2023/06/16 14:00:17;;;;;;;14.17;2.83;;;;;;;33.41;52.38;100089.72;20981944;28;20037;-84
2023/06/16 14:10:40;;;;;;;11.07;2.33;;;;;;;32.71;48.60;100100.53;20987972;28;20666;-85
2023/06/16 14:21:03;;;;;;;8.55;2.78;;;;;;;32.19;45.46;100101.41;20958806;28;20114;-80
2023/06/16 14:31:28;;;;;;;8.57;2.42;;;;;;;31.96;43.70;100098.72;20979326;28;20113;-85
2023/06/16 14:41:50;;;;;;;10.70;2.65;;;;;;;31.64;42.95;100098.66;20982921;28;20048;-81
2023/06/16 14:52:16;;;;;;;8.10;1.80;;;;;;;31.36;44.23;100099.16;20984406;28;20052;-82
2023/06/16 15:02:39;;;;;;;7.22;2.50;;;;;;;31.31;44.14;100104.09;20967182;28;20052;-83
2023/06/16 15:13:04;;;;;;;6.43;2.88;;;;;;;31.92;43.66;100108.16;21005015;28;20504;-84
2023/06/16 15:23:29;;;;;;;6.50;1.88;;;;;;;32.44;42.72;100111.97;20974137;28;20422;-84
2023/06/16 15:33:59;;;;;;;4.40;2.03;;;;;;;32.21;42.87;100108.47;20992169;28;20135;-84
2023/06/16 15:44:22;;;;;;;5.13;2.20;;;;;;;31.82;43.34;100118.13;20982404;28;20377;-83
2023/06/16 15:54:46;;;;;;;9.02;2.40;;;;;;;31.34;45.73;100133.88;20991381;28;20056;-83
2023/06/16 16:04:49;;;;;;;10.52;2.85;;;;;;;30.83;49.63;100141.59;20987581;28;20512;-83
2023/06/16 16:15:13;;;;;;;7.40;2.53;;;;;;;30.75;50.17;100164.00;20982605;28;20558;-84
2023/06/16 16:25:35;;;;;;;6.30;2.50;;;;;;;30.48;52.13;100145.16;20980087;28;20052;-82
2023/06/16 16:36:01;;;;;;;9.10;2.67;;;;;;;30.05;55.04;100150.28;20968762;28;20500;-83
2023/06/16 16:46:24;;;;;;;6.65;2.78;;;;;;;29.75;58.45;100152.53;20981743;28;20124;-83
2023/06/16 16:56:50;;;;;;;10.38;3.00;;;;;;;29.24;63.41;100149.00;20977827;28;20503;-79
2023/06/16 17:07:13;;;;;;;12.38;2.78;;;;;;;29.03;66.54;100161.38;20940424;28;20052;-83
2023/06/16 17:17:20;;;;;;;7.50;2.70;;;;;;;28.91;68.28;100163.13;20947739;28;20049;-82
2023/06/16 17:27:42;;;;;;;10.48;2.78;;;;;;;28.71;71.41;100177.19;20980313;28;20090;-83
2023/06/16 17:38:06;;;;;;;10.98;3.65;;;;;;;28.33;77.94;100167.09;20985129;28;20052;-83
2023/06/16 17:48:29;;;;;;;10.57;3.13;;;;;;;28.19;79.68;100185.28;20984053;28;20052;-82
2023/06/16 17:58:53;;;;;;;13.73;4.32;;;;;;;27.96;82.93;100181.34;20989822;28;20067;-82
2023/06/16 18:09:15;;;;;;;14.95;3.55;;;;;;;27.74;85.40;100204.44;20989214;28;20110;-85
2023/06/16 18:19:39;;;;;;;13.43;3.25;;;;;;;27.46;92.31;100212.53;20986528;28;20497;-83
2023/06/16 18:30:02;;;;;;;10.73;3.38;;;;;;;27.30;93.88;100217.19;21003671;28;20067;-83
2023/06/16 18:40:27;;;;;;;10.07;2.92;;;;;;;27.40;92.69;100222.91;20989251;28;20053;-83
2023/06/16 18:50:50;;;;;;;12.90;3.10;;;;;;;27.31;91.55;100229.75;21000102;28;20442;-85
2023/06/16 19:01:15;;;;;;;8.57;2.50;;;;;;;27.17;89.91;100246.91;20961319;28;20048;-85
2023/06/16 19:11:38;;;;;;;8.23;2.90;;;;;;;27.08;89.73;100255.59;20970140;28;20102;-85
2023/06/16 19:22:02;;;;;;;7.28;2.55;;;;;;;27.03;91.19;100254.13;20964690;28;20048;-84
2023/06/16 19:32:24;;;;;;;7.10;2.92;;;;;;;26.94;92.33;100267.25;20984224;28;20098;-84
2023/06/16 19:42:48;;;;;;;10.27;2.75;;;;;;;26.82;92.20;100261.66;20959262;28;20045;-84
2023/06/16 19:53:11;;;;;;;9.30;2.70;;;;;;;26.72;94.41;100266.75;20987420;28;20045;-83
2023/06/16 20:03:35;;;;;;;15.65;4.43;;;;;;;26.52;100.00;100267.03;20969848;28;20045;-86
2023/06/16 20:13:41;;;;;;;19.48;5.85;;;;;;;26.30;100.00;100271.97;20947677;28;20064;-84
2023/06/16 20:24:09;;;;;;;21.48;6.03;;;;;;;26.11;100.00;100256.75;20975982;28;20051;-83
2023/06/16 20:34:31;;;;;;;22.53;5.47;;;;;;;25.89;100.00;100258.91;20952067;28;20101;-84
2023/06/16 20:44:39;;;;;;;16.40;5.10;;;;;;;25.84;100.00;100276.34;20977664;28;20051;-84
2023/06/16 20:55:03;;;;;;;16.52;4.97;;;;;;;25.33;100.00;100260.13;20964363;28;20079;-84
2023/06/16 21:05:30;;;;;;;18.83;5.80;;;;;;;25.25;100.00;100247.97;20977373;28;20048;-84
2023/06/16 21:16:01;;;;;;;16.83;4.55;;;;;;;24.89;100.00;100256.13;20976927;28;20087;-83
2023/06/16 21:26:26;;;;;;;28.20;7.63;;;;;;;25.09;100.00;100247.91;20994419;28;20060;-85
2023/06/16 21:36:48;;;;;;;14.38;5.10;;;;;;;24.85;100.00;100244.63;20970758;28;20067;-83
2023/06/16 21:47:12;;;;;;;14.38;4.82;;;;;;;24.74;100.00;100224.53;20996793;28;20048;-83
2023/06/16 21:57:36;;;;;;;11.95;4.57;;;;;;;24.62;100.00;100226.88;20985151;28;20067;-84
2023/06/16 22:08:04;;;;;;;12.65;4.68;;;;;;;24.15;100.00;100221.16;20967046;28;20083;-84
2023/06/16 22:18:24;;;;;;;11.85;4.13;;;;;;;24.34;100.00;100204.97;20982678;28;20052;-83
2023/06/16 22:28:48;;;;;;;25.00;6.75;;;;;;;24.27;100.00;100206.22;20979627;28;20040;-83
2023/06/16 22:39:11;;;;;;;16.77;5.35;;;;;;;24.23;100.00;100199.19;20968244;28;20094;-83
2023/06/16 22:49:35;;;;;;;20.83;6.72;;;;;;;24.13;100.00;100189.78;20986589;28;20052;-84
2023/06/16 22:59:57;;;;;;;16.60;5.60;;;;;;;23.52;100.00;100179.25;20972564;28;20135;-84
2023/06/16 23:10:03;;;;;;;19.55;5.53;;;;;;;23.75;100.00;100180.88;20963622;28;20048;-82
2023/06/16 23:20:26;;;;;;;12.43;5.40;;;;;;;23.54;100.00;100179.19;20975445;28;20056;-83
2023/06/16 23:30:51;;;;;;;14.25;5.95;;;;;;;23.58;100.00;100184.34;20983128;28;20060;-84
2023/06/16 23:41:14;;;;;;;14.30;5.75;;;;;;;23.55;100.00;100183.63;20986218;28;20049;-84
2023/06/16 23:51:39;;;;;;;22.42;6.40;;;;;;;23.45;100.00;100173.25;20993910;28;20040;-84
